createdAt,value
2018-05-16T00:00:05.639Z,0
2018-05-16T00:05:05.330Z,0
2018-05-16T00:10:05.424Z,0
2018-05-16T00:15:05.452Z,0
2018-05-16T00:20:05.348Z,0
2018-05-16T00:25:05.483Z,0
2018-05-16T00:30:05.224Z,0
2018-05-16T00:35:05.198Z,0
2018-05-16T00:40:05.477Z,0
2018-05-16T00:45:05.412Z,0
2018-05-16T00:50:05.558Z,0
2018-05-16T00:55:05.529Z,0
2018-05-16T01:00:05.271Z,0
2018-05-16T01:05:05.457Z,0
2018-05-16T01:10:05.430Z,0
2018-05-16T01:15:05.112Z,0
2018-05-16T01:20:05.237Z,0
2018-05-16T01:25:05.453Z,0
2018-05-16T01:30:05.376Z,0
2018-05-16T01:35:05.470Z,0
2018-05-16T01:40:05.405Z,0
2018-05-16T01:45:05.275Z,0
2018-05-16T01:50:05.149Z,0
2018-05-16T01:55:05.400Z,0
2018-05-16T02:00:05.107Z,0
2018-05-16T02:05:05.276Z,0
2018-05-16T02:10:05.401Z,0
2018-05-16T02:15:05.350Z,0
2018-05-16T02:20:05.260Z,0
2018-05-16T02:25:05.251Z,0
2018-05-16T02:30:05.277Z,0
2018-05-16T02:35:05.214Z,0
2018-05-16T02:40:05.096Z,0
2018-05-16T02:45:05.294Z,0
2018-05-16T02:50:05.298Z,0
2018-05-16T02:55:05.206Z,0
2018-05-16T03:00:05.078Z,0
2018-05-16T03:05:05.205Z,0
2018-05-16T03:10:04.959Z,0
2018-05-16T03:15:05.238Z,0
2018-05-16T03:20:05.139Z,0
2018-05-16T03:25:05.196Z,0
2018-05-16T03:30:05.188Z,0
2018-05-16T03:35:05.311Z,0
2018-05-16T03:40:05.267Z,0
2018-05-16T03:45:05.068Z,0.8
2018-05-16T03:50:05.096Z,1.7
2018-05-16T03:55:05.013Z,3.3
2018-05-16T04:00:05.088Z,5
2018-05-16T04:05:04.859Z,6.7
2018-05-16T04:10:05.186Z,9.2
2018-05-16T04:15:05.153Z,14.2
2018-05-16T04:20:05.071Z,16.7
2018-05-16T04:25:05.068Z,19.2
2018-05-16T04:30:05.073Z,23.3
2018-05-16T04:35:04.977Z,25
2018-05-16T04:40:05.199Z,31.7
2018-05-16T04:45:05.047Z,41.7
2018-05-16T04:50:04.960Z,48.3
2018-05-16T04:55:04.965Z,60
2018-05-16T05:00:04.907Z,70.8
2018-05-16T05:05:05.006Z,72.5
2018-05-16T05:10:05.055Z,75
2018-05-16T05:15:04.950Z,81.7
2018-05-16T05:20:04.902Z,85
2018-05-16T05:25:04.937Z,95
2018-05-16T05:30:04.852Z,96.7
2018-05-16T05:35:04.953Z,82.5
2018-05-16T05:40:05.008Z,66.7
2018-05-16T05:45:04.965Z,67.5
2018-05-16T05:50:05.010Z,70.8
2018-05-16T05:55:04.922Z,83.3
2018-05-16T06:00:04.929Z,100.8
2018-05-16T06:05:04.982Z,114.2
2018-05-16T06:10:04.927Z,127.5
2018-05-16T06:15:04.656Z,136.7
2018-05-16T06:20:04.735Z,137.5
2018-05-16T06:25:04.897Z,141.7
2018-05-16T06:30:04.958Z,106.7
2018-05-16T06:35:04.694Z,72.5
2018-05-16T06:40:04.703Z,70.8
2018-05-16T06:45:04.597Z,95
2018-05-16T06:50:04.654Z,88.3
2018-05-16T06:55:04.774Z,93.3
2018-05-16T07:00:04.804Z,100.8
2018-05-16T07:05:04.839Z,155.8
2018-05-16T07:10:04.634Z,146.7
2018-05-16T07:15:04.558Z,100
2018-05-16T07:20:04.555Z,103.3
2018-05-16T07:25:04.790Z,139.2
2018-05-16T07:30:04.724Z,145
2018-05-16T07:35:04.480Z,200
2018-05-16T07:40:04.706Z,178.3
2018-05-16T07:45:04.489Z,140.8
2018-05-16T07:50:04.642Z,98.3
2018-05-16T07:55:04.466Z,87.5
2018-05-16T08:00:04.570Z,88.3
2018-05-16T08:05:04.772Z,114.2
2018-05-16T08:10:04.566Z,190
2018-05-16T08:15:04.789Z,255.8
2018-05-16T08:20:04.540Z,282.5
2018-05-16T08:25:04.519Z,290.8
2018-05-16T08:30:04.565Z,315
2018-05-16T08:35:04.784Z,317.5
2018-05-16T08:40:04.475Z,356.7
2018-05-16T08:45:04.492Z,320
2018-05-16T08:50:04.677Z,360
2018-05-16T08:55:04.580Z,498.3
2018-05-16T09:00:04.549Z,417.5
2018-05-16T09:05:04.485Z,455.8
2018-05-16T09:10:04.699Z,353.3
2018-05-16T09:15:04.593Z,260.8
2018-05-16T09:20:04.643Z,335
2018-05-16T09:25:04.691Z,323.3
2018-05-16T09:30:04.706Z,396.7
2018-05-16T09:35:04.508Z,418.3
2018-05-16T09:40:04.427Z,494.2
2018-05-16T09:45:04.555Z,648.3
2018-05-16T09:50:04.634Z,752.5
2018-05-16T09:55:04.433Z,649.2
2018-05-16T10:00:04.466Z,421.7
2018-05-16T10:05:04.307Z,480
2018-05-16T10:10:04.584Z,690.8
2018-05-16T10:15:04.332Z,601.7
2018-05-16T10:20:04.268Z,714.2
2018-05-16T10:25:04.275Z,752.5
2018-05-16T10:30:04.223Z,779.2
2018-05-16T10:35:04.154Z,1045.8
2018-05-16T10:40:04.289Z,567.5
2018-05-16T10:45:04.294Z,643.3
2018-05-16T10:50:04.565Z,689.2
2018-05-16T10:55:04.496Z,871.7
2018-05-16T11:00:04.415Z,663.3
2018-05-16T11:05:04.264Z,516.7
2018-05-16T11:10:04.469Z,560.8
2018-05-16T11:15:04.252Z,905.8
2018-05-16T11:20:04.483Z,1010
2018-05-16T11:25:04.269Z,697.5
2018-05-16T11:30:04.135Z,822.5
2018-05-16T11:35:04.052Z,1667.5
2018-05-16T11:40:04.187Z,1083.3
2018-05-16T11:45:04.101Z,1267.5
2018-05-16T11:50:04.423Z,1430.8
2018-05-16T11:55:04.113Z,774.2
2018-05-16T12:00:04.354Z,1606.7
2018-05-16T12:05:04.168Z,1574.2
2018-05-16T12:10:04.357Z,1047.5
2018-05-16T12:15:04.178Z,948.3
2018-05-16T12:20:04.564Z,732.5
2018-05-16T12:25:04.177Z,732.5
2018-05-16T12:30:04.406Z,693.3
2018-05-16T12:35:04.129Z,864.2
2018-05-16T12:40:04.137Z,887.5
2018-05-16T12:45:04.027Z,852.5
2018-05-16T12:50:04.345Z,1323.3
2018-05-16T12:55:04.241Z,1641.7
2018-05-16T13:00:04.290Z,1677.5
2018-05-16T13:05:04.038Z,1734.2
2018-05-16T13:10:04.324Z,1608.3
2018-05-16T13:15:04.077Z,559.2
2018-05-16T13:20:04.321Z,576.7
2018-05-16T13:25:04.142Z,557.5
2018-05-16T13:30:04.307Z,1235
2018-05-16T13:35:04.109Z,1830
2018-05-16T13:40:04.345Z,1932.5
2018-05-16T13:45:03.968Z,1705
2018-05-16T13:50:04.010Z,1805.8
2018-05-16T13:55:04.163Z,1768.3
2018-05-16T14:00:03.943Z,1719.2
2018-05-16T14:05:04.087Z,1420.8
2018-05-16T14:10:03.956Z,1625.8
2018-05-16T14:15:03.902Z,1187.5
2018-05-16T14:20:03.898Z,1588.3
2018-05-16T14:25:03.938Z,1453.3
2018-05-16T14:30:03.882Z,1244.2
2018-05-16T14:35:03.959Z,1496.7
2018-05-16T14:40:04.125Z,692.5
2018-05-16T14:45:03.975Z,1171.7
2018-05-16T14:50:04.077Z,945
2018-05-16T14:55:03.891Z,699.2
2018-05-16T15:00:04.066Z,1371.7
2018-05-16T15:05:03.867Z,1129.2
2018-05-16T15:10:04.151Z,1224.2
2018-05-16T15:15:04.079Z,735
2018-05-16T15:20:03.930Z,858.3
2018-05-16T15:25:04.126Z,1120.8
2018-05-16T15:30:03.951Z,1148.3
2018-05-16T15:35:03.856Z,1179.2
2018-05-16T15:40:04.100Z,940.8
2018-05-16T15:45:03.865Z,890
2018-05-16T15:50:03.895Z,973.3
2018-05-16T15:55:03.878Z,912.5
2018-05-16T16:00:03.960Z,820.8
2018-05-16T16:05:03.831Z,459.2
2018-05-16T16:10:03.919Z,183.3
2018-05-16T16:15:04.032Z,201.7
2018-05-16T16:20:03.931Z,300
2018-05-16T16:25:03.981Z,294.2
2018-05-16T16:30:03.788Z,256.7
2018-05-16T16:35:03.934Z,152.5
2018-05-16T16:40:03.907Z,221.7
2018-05-16T16:45:03.815Z,172.5
2018-05-16T16:50:03.823Z,149.2
2018-05-16T16:55:03.677Z,147.5
2018-05-16T17:00:03.763Z,106.7
2018-05-16T17:05:03.667Z,126.7
2018-05-16T17:10:03.821Z,102.5
2018-05-16T17:15:03.860Z,153.3
2018-05-16T17:20:04.009Z,96.7
2018-05-16T17:25:03.884Z,99.2
2018-05-16T17:30:03.696Z,73.3
2018-05-16T17:35:04.651Z,87.5
2018-05-16T17:40:03.695Z,79.2
2018-05-16T17:45:03.831Z,60.8
2018-05-16T17:50:03.792Z,53.3
2018-05-16T17:55:03.917Z,88.3
2018-05-16T18:00:03.686Z,69.2
2018-05-16T18:05:03.794Z,55
2018-05-16T18:10:03.690Z,53.3
2018-05-16T18:15:03.719Z,45.8
2018-05-16T18:20:03.725Z,41.7
2018-05-16T18:25:03.676Z,35
2018-05-16T18:30:03.665Z,30
2018-05-16T18:35:03.613Z,20
2018-05-16T18:40:03.789Z,23.3
2018-05-16T18:45:03.800Z,14.2
2018-05-16T18:50:03.560Z,13.3
2018-05-16T18:55:03.778Z,11.7
2018-05-16T19:00:03.714Z,12.5
2018-05-16T19:05:03.516Z,10
2018-05-16T19:10:03.742Z,6.7
2018-05-16T19:15:03.760Z,4.2
2018-05-16T19:20:03.582Z,3.3
2018-05-16T19:25:03.684Z,2.5
2018-05-16T19:30:03.800Z,1.7
2018-05-16T19:35:03.620Z,0.8
2018-05-16T19:40:03.795Z,0
2018-05-16T19:45:03.696Z,0
2018-05-16T19:50:03.648Z,0
2018-05-16T19:55:03.685Z,0
2018-05-16T20:00:03.684Z,0
2018-05-16T20:05:03.651Z,0
2018-05-16T20:10:03.695Z,0
2018-05-16T20:15:03.513Z,0
2018-05-16T20:20:03.394Z,0
2018-05-16T20:25:03.500Z,0
2018-05-16T20:30:03.573Z,0
2018-05-16T20:35:03.639Z,0
2018-05-16T20:40:03.551Z,0
2018-05-16T20:45:03.497Z,0
2018-05-16T20:50:03.455Z,0
2018-05-16T20:55:03.550Z,0
2018-05-16T21:00:03.536Z,0
2018-05-16T21:05:03.328Z,0
2018-05-16T21:10:03.337Z,0
2018-05-16T21:15:03.390Z,0
2018-05-16T21:20:03.474Z,0
2018-05-16T21:25:03.675Z,0
2018-05-16T21:30:03.577Z,0
2018-05-16T21:35:03.588Z,0
2018-05-16T21:40:03.508Z,0
2018-05-16T21:45:03.777Z,0
2018-05-16T21:50:03.556Z,0
2018-05-16T21:55:03.246Z,0
2018-05-16T22:00:03.223Z,0
2018-05-16T22:05:03.361Z,0
2018-05-16T22:10:03.273Z,0
2018-05-16T22:15:03.507Z,0
2018-05-16T22:20:03.494Z,0
2018-05-16T22:25:03.433Z,0
2018-05-16T22:30:03.399Z,0
2018-05-16T22:35:03.482Z,0
2018-05-16T22:40:03.437Z,0
2018-05-16T22:45:03.071Z,0
2018-05-16T22:50:03.198Z,0
2018-05-16T22:55:03.071Z,0
2018-05-16T23:00:03.386Z,0
2018-05-16T23:05:03.342Z,0
2018-05-16T23:10:03.229Z,0
2018-05-16T23:15:03.295Z,0
2018-05-16T23:20:03.252Z,0
2018-05-16T23:25:03.216Z,0
2018-05-16T23:30:03.416Z,0
2018-05-16T23:35:03.344Z,0
2018-05-16T23:40:03.263Z,0
2018-05-16T23:45:03.023Z,0
2018-05-16T23:50:03.282Z,0
2018-05-16T23:55:03.113Z,0
